sensor_id;sensor_type;location;lat;lon;timestamp;P1;durP1;ratioP1;P2;durP2;ratioP2
72127;SDS011;60000;51.030;7.024;2023-11-21T00:02:12;6.03;;;2.13;;
72127;SDS011;60000;51.030;7.024;2023-11-21T00:04:37;5.53;;;1.90;;
72127;SDS011;60000;51.030;7.024;2023-11-21T00:07:03;5.40;;;2.20;;
72127;SDS011;60000;51.030;7.024;2023-11-21T00:09:28;6.00;;;2.50;;
72127;SDS011;60000;51.030;7.024;2023-11-21T00:11:54;10.90;;;4.10;;
72127;SDS011;60000;51.030;7.024;2023-11-21T00:14:19;11.93;;;4.65;;
72127;SDS011;60000;51.030;7.024;2023-11-21T00:16:44;11.90;;;5.22;;
72127;SDS011;60000;51.030;7.024;2023-11-21T00:19:10;9.80;;;4.70;;
72127;SDS011;60000;51.030;7.024;2023-11-21T00:21:36;10.55;;;4.35;;
72127;SDS011;60000;51.030;7.024;2023-11-21T00:24:01;10.27;;;4.97;;
72127;SDS011;60000;51.030;7.024;2023-11-21T00:26:26;10.40;;;4.23;;
72127;SDS011;60000;51.030;7.024;2023-11-21T00:28:52;9.20;;;3.73;;
72127;SDS011;60000;51.030;7.024;2023-11-21T00:31:18;9.65;;;4.15;;
72127;SDS011;60000;51.030;7.024;2023-11-21T00:33:43;8.67;;;3.30;;
72127;SDS011;60000;51.030;7.024;2023-11-21T00:36:09;7.27;;;3.40;;
72127;SDS011;60000;51.030;7.024;2023-11-21T00:38:37;8.75;;;3.55;;
72127;SDS011;60000;51.030;7.024;2023-11-21T00:41:05;8.40;;;3.33;;
72127;SDS011;60000;51.030;7.024;2023-11-21T00:43:30;6.75;;;2.83;;
72127;SDS011;60000;51.030;7.024;2023-11-21T00:45:56;6.97;;;2.90;;
72127;SDS011;60000;51.030;7.024;2023-11-21T00:48:21;10.53;;;4.17;;
72127;SDS011;60000;51.030;7.024;2023-11-21T00:50:46;7.80;;;3.50;;
72127;SDS011;60000;51.030;7.024;2023-11-21T00:53:12;8.25;;;3.70;;
72127;SDS011;60000;51.030;7.024;2023-11-21T00:55:37;7.13;;;3.10;;
72127;SDS011;60000;51.030;7.024;2023-11-21T00:58:05;9.40;;;3.35;;
72127;SDS011;60000;51.030;7.024;2023-11-21T01:00:31;7.28;;;3.10;;
72127;SDS011;60000;51.030;7.024;2023-11-21T01:02:57;7.60;;;3.10;;
72127;SDS011;60000;51.030;7.024;2023-11-21T01:05:23;6.57;;;2.78;;
72127;SDS011;60000;51.030;7.024;2023-11-21T01:07:48;9.00;;;3.47;;
72127;SDS011;60000;51.030;7.024;2023-11-21T01:10:13;8.50;;;3.50;;
72127;SDS011;60000;51.030;7.024;2023-11-21T01:12:39;7.63;;;3.50;;
72127;SDS011;60000;51.030;7.024;2023-11-21T01:15:05;11.87;;;4.27;;
72127;SDS011;60000;51.030;7.024;2023-11-21T01:17:33;9.38;;;4.30;;
72127;SDS011;60000;51.030;7.024;2023-11-21T01:19:59;7.50;;;3.60;;
72127;SDS011;60000;51.030;7.024;2023-11-21T01:22:25;8.30;;;4.00;;
72127;SDS011;60000;51.030;7.024;2023-11-21T01:24:51;8.68;;;3.88;;
72127;SDS011;60000;51.030;7.024;2023-11-21T01:27:19;8.82;;;3.67;;
72127;SDS011;60000;51.030;7.024;2023-11-21T01:29:45;8.77;;;3.77;;
72127;SDS011;60000;51.030;7.024;2023-11-21T01:32:10;7.40;;;3.60;;
72127;SDS011;60000;51.030;7.024;2023-11-21T01:34:36;7.07;;;3.57;;
72127;SDS011;60000;51.030;7.024;2023-11-21T01:37:01;7.80;;;3.50;;
72127;SDS011;60000;51.030;7.024;2023-11-21T01:39:29;7.22;;;3.47;;
72127;SDS011;60000;51.030;7.024;2023-11-21T01:41:55;7.37;;;3.57;;
72127;SDS011;60000;51.030;7.024;2023-11-21T01:44:20;7.47;;;2.90;;
72127;SDS011;60000;51.030;7.024;2023-11-21T01:46:45;8.70;;;2.63;;
72127;SDS011;60000;51.030;7.024;2023-11-21T01:49:12;6.78;;;3.17;;
72127;SDS011;60000;51.030;7.024;2023-11-21T01:51:38;5.83;;;2.30;;
72127;SDS011;60000;51.030;7.024;2023-11-21T01:54:08;5.90;;;2.40;;
72127;SDS011;60000;51.030;7.024;2023-11-21T01:56:34;6.83;;;3.10;;
72127;SDS011;60000;51.030;7.024;2023-11-21T01:58:59;6.47;;;2.90;;
72127;SDS011;60000;51.030;7.024;2023-11-21T02:01:25;7.20;;;3.17;;
72127;SDS011;60000;51.030;7.024;2023-11-21T02:03:51;7.25;;;3.20;;
72127;SDS011;60000;51.030;7.024;2023-11-21T02:06:16;7.30;;;3.37;;
72127;SDS011;60000;51.030;7.024;2023-11-21T02:08:43;11.15;;;4.80;;
72127;SDS011;60000;51.030;7.024;2023-11-21T02:11:09;12.40;;;5.32;;
72127;SDS011;60000;51.030;7.024;2023-11-21T02:13:37;10.67;;;4.57;;
72127;SDS011;60000;51.030;7.024;2023-11-21T02:16:03;12.73;;;5.15;;
72127;SDS011;60000;51.030;7.024;2023-11-21T02:18:30;10.23;;;4.22;;
72127;SDS011;60000;51.030;7.024;2023-11-21T02:20:55;12.63;;;4.30;;
72127;SDS011;60000;51.030;7.024;2023-11-21T02:23:21;8.35;;;3.90;;
72127;SDS011;60000;51.030;7.024;2023-11-21T02:25:48;8.30;;;3.60;;
72127;SDS011;60000;51.030;7.024;2023-11-21T02:28:13;8.10;;;3.00;;
72127;SDS011;60000;51.030;7.024;2023-11-21T02:30:41;7.68;;;3.22;;
72127;SDS011;60000;51.030;7.024;2023-11-21T02:33:07;8.73;;;3.27;;
72127;SDS011;60000;51.030;7.024;2023-11-21T02:35:33;7.18;;;3.00;;
72127;SDS011;60000;51.030;7.024;2023-11-21T02:37:58;6.37;;;2.90;;
72127;SDS011;60000;51.030;7.024;2023-11-21T02:40:23;6.87;;;2.93;;
72127;SDS011;60000;51.030;7.024;2023-11-21T02:42:50;6.75;;;2.90;;
72127;SDS011;60000;51.030;7.024;2023-11-21T02:45:17;6.57;;;2.80;;
72127;SDS011;60000;51.030;7.024;2023-11-21T02:47:44;7.65;;;3.10;;
72127;SDS011;60000;51.030;7.024;2023-11-21T02:50:09;7.10;;;2.80;;
72127;SDS011;60000;51.030;7.024;2023-11-21T02:52:35;5.90;;;2.50;;
72127;SDS011;60000;51.030;7.024;2023-11-21T02:55:01;6.75;;;2.70;;
72127;SDS011;60000;51.030;7.024;2023-11-21T02:57:27;5.82;;;2.45;;
72127;SDS011;60000;51.030;7.024;2023-11-21T02:59:53;6.00;;;2.33;;
72127;SDS011;60000;51.030;7.024;2023-11-21T03:02:18;5.70;;;2.27;;
72127;SDS011;60000;51.030;7.024;2023-11-21T03:04:44;7.10;;;2.70;;
72127;SDS011;60000;51.030;7.024;2023-11-21T03:07:09;5.87;;;2.50;;
72127;SDS011;60000;51.030;7.024;2023-11-21T03:09:35;6.55;;;2.60;;
72127;SDS011;60000;51.030;7.024;2023-11-21T03:12:00;7.13;;;3.10;;
72127;SDS011;60000;51.030;7.024;2023-11-21T03:14:25;7.77;;;3.03;;
72127;SDS011;60000;51.030;7.024;2023-11-21T03:16:51;7.93;;;3.33;;
72127;SDS011;60000;51.030;7.024;2023-11-21T03:19:16;8.53;;;2.73;;
72127;SDS011;60000;51.030;7.024;2023-11-21T03:21:42;5.80;;;2.50;;
72127;SDS011;60000;51.030;7.024;2023-11-21T03:24:07;8.00;;;3.30;;
72127;SDS011;60000;51.030;7.024;2023-11-21T03:26:33;8.32;;;2.60;;
72127;SDS011;60000;51.030;7.024;2023-11-21T03:28:58;9.35;;;4.60;;
72127;SDS011;60000;51.030;7.024;2023-11-21T03:31:23;10.17;;;4.20;;
72127;SDS011;60000;51.030;7.024;2023-11-21T03:33:49;7.50;;;3.60;;
72127;SDS011;60000;51.030;7.024;2023-11-21T03:36:14;9.70;;;4.40;;
72127;SDS011;60000;51.030;7.024;2023-11-21T03:38:43;12.85;;;5.60;;
72127;SDS011;60000;51.030;7.024;2023-11-21T03:41:08;13.97;;;5.80;;
72127;SDS011;60000;51.030;7.024;2023-11-21T03:43:35;15.82;;;6.38;;
72127;SDS011;60000;51.030;7.024;2023-11-21T03:46:01;15.20;;;7.07;;
72127;SDS011;60000;51.030;7.024;2023-11-21T03:48:26;16.13;;;6.40;;
72127;SDS011;60000;51.030;7.024;2023-11-21T03:50:51;10.75;;;5.60;;
72127;SDS011;60000;51.030;7.024;2023-11-21T03:53:17;13.80;;;6.30;;
72127;SDS011;60000;51.030;7.024;2023-11-21T03:55:42;13.57;;;5.63;;
72127;SDS011;60000;51.030;7.024;2023-11-21T03:58:07;14.93;;;6.43;;
72127;SDS011;60000;51.030;7.024;2023-11-21T04:00:33;13.87;;;6.10;;
72127;SDS011;60000;51.030;7.024;2023-11-21T04:02:58;12.00;;;5.60;;
72127;SDS011;60000;51.030;7.024;2023-11-21T04:05:24;14.63;;;5.50;;
72127;SDS011;60000;51.030;7.024;2023-11-21T04:07:49;13.50;;;6.07;;
72127;SDS011;60000;51.030;7.024;2023-11-21T04:10:16;13.02;;;5.22;;
72127;SDS011;60000;51.030;7.024;2023-11-21T04:12:41;14.20;;;6.70;;
72127;SDS011;60000;51.030;7.024;2023-11-21T04:15:07;12.53;;;5.90;;
72127;SDS011;60000;51.030;7.024;2023-11-21T04:17:34;16.13;;;6.75;;
72127;SDS011;60000;51.030;7.024;2023-11-21T04:20:00;14.30;;;6.40;;
72127;SDS011;60000;51.030;7.024;2023-11-21T04:22:25;14.57;;;5.87;;
72127;SDS011;60000;51.030;7.024;2023-11-21T04:24:50;10.63;;;4.90;;
72127;SDS011;60000;51.030;7.024;2023-11-21T04:27:15;9.13;;;4.87;;
72127;SDS011;60000;51.030;7.024;2023-11-21T04:29:43;14.20;;;4.10;;
72127;SDS011;60000;51.030;7.024;2023-11-21T04:32:09;11.15;;;4.65;;
72127;SDS011;60000;51.030;7.024;2023-11-21T04:34:34;9.77;;;4.73;;
72127;SDS011;60000;51.030;7.024;2023-11-21T04:37:00;7.95;;;3.67;;
72127;SDS011;60000;51.030;7.024;2023-11-21T04:39:25;8.15;;;3.72;;
72127;SDS011;60000;51.030;7.024;2023-11-21T04:41:51;11.23;;;5.83;;
72127;SDS011;60000;51.030;7.024;2023-11-21T04:44:16;8.60;;;3.90;;
72127;SDS011;60000;51.030;7.024;2023-11-21T04:46:42;9.73;;;3.93;;
72127;SDS011;60000;51.030;7.024;2023-11-21T04:49:07;8.43;;;3.67;;
72127;SDS011;60000;51.030;7.024;2023-11-21T04:51:33;11.32;;;3.65;;
72127;SDS011;60000;51.030;7.024;2023-11-21T04:53:58;12.80;;;5.03;;
72127;SDS011;60000;51.030;7.024;2023-11-21T04:56:24;12.63;;;5.63;;
72127;SDS011;60000;51.030;7.024;2023-11-21T04:58:49;11.67;;;5.00;;
72127;SDS011;60000;51.030;7.024;2023-11-21T05:01:15;10.20;;;5.27;;
72127;SDS011;60000;51.030;7.024;2023-11-21T05:03:40;9.40;;;4.63;;
72127;SDS011;60000;51.030;7.024;2023-11-21T05:06:06;9.63;;;3.67;;
72127;SDS011;60000;51.030;7.024;2023-11-21T05:08:31;8.77;;;3.55;;
72127;SDS011;60000;51.030;7.024;2023-11-21T05:10:57;7.13;;;3.70;;
72127;SDS011;60000;51.030;7.024;2023-11-21T05:13:22;8.10;;;3.70;;
72127;SDS011;60000;51.030;7.024;2023-11-21T05:15:52;7.57;;;3.13;;
72127;SDS011;60000;51.030;7.024;2023-11-21T05:18:18;7.00;;;3.03;;
72127;SDS011;60000;51.030;7.024;2023-11-21T05:20:43;6.95;;;2.80;;
72127;SDS011;60000;51.030;7.024;2023-11-21T05:23:08;8.23;;;3.00;;
72127;SDS011;60000;51.030;7.024;2023-11-21T05:25:34;7.13;;;3.17;;
72127;SDS011;60000;51.030;7.024;2023-11-21T05:27:59;7.83;;;3.13;;
72127;SDS011;60000;51.030;7.024;2023-11-21T05:30:26;8.52;;;3.08;;
72127;SDS011;60000;51.030;7.024;2023-11-21T05:32:52;7.13;;;2.37;;
72127;SDS011;60000;51.030;7.024;2023-11-21T05:35:17;6.63;;;2.50;;
72127;SDS011;60000;51.030;7.024;2023-11-21T05:37:43;7.82;;;2.90;;
72127;SDS011;60000;51.030;7.024;2023-11-21T05:40:09;10.20;;;4.10;;
72127;SDS011;60000;51.030;7.024;2023-11-21T05:42:35;12.57;;;4.03;;
72127;SDS011;60000;51.030;7.024;2023-11-21T05:45:01;9.85;;;4.13;;
72127;SDS011;60000;51.030;7.024;2023-11-21T05:47:45;9.43;;;4.70;;
72127;SDS011;60000;51.030;7.024;2023-11-21T05:50:11;9.43;;;3.80;;
72127;SDS011;60000;51.030;7.024;2023-11-21T05:52:39;8.02;;;3.38;;
72127;SDS011;60000;51.030;7.024;2023-11-21T05:55:05;8.45;;;3.72;;
72127;SDS011;60000;51.030;7.024;2023-11-21T05:57:32;12.32;;;4.80;;
72127;SDS011;60000;51.030;7.024;2023-11-21T06:00:04;12.32;;;5.32;;
72127;SDS011;60000;51.030;7.024;2023-11-21T06:02:45;10.70;;;4.47;;
72127;SDS011;60000;51.030;7.024;2023-11-21T06:05:14;9.60;;;4.28;;
72127;SDS011;60000;51.030;7.024;2023-11-21T06:07:40;9.82;;;3.95;;
72127;SDS011;60000;51.030;7.024;2023-11-21T06:10:07;8.43;;;3.50;;
72127;SDS011;60000;51.030;7.024;2023-11-21T06:12:36;8.90;;;3.65;;
72127;SDS011;60000;51.030;7.024;2023-11-21T06:15:03;8.60;;;3.30;;
72127;SDS011;60000;51.030;7.024;2023-11-21T06:17:33;10.52;;;3.28;;
72127;SDS011;60000;51.030;7.024;2023-11-21T06:20:01;6.63;;;3.13;;
72127;SDS011;60000;51.030;7.024;2023-11-21T06:22:29;7.32;;;3.25;;
72127;SDS011;60000;51.030;7.024;2023-11-21T06:24:55;8.25;;;2.90;;
72127;SDS011;60000;51.030;7.024;2023-11-21T06:27:20;6.60;;;2.90;;
72127;SDS011;60000;51.030;7.024;2023-11-21T06:29:46;7.23;;;2.80;;
72127;SDS011;60000;51.030;7.024;2023-11-21T06:32:11;8.60;;;2.90;;
72127;SDS011;60000;51.030;7.024;2023-11-21T06:34:37;8.93;;;3.23;;
72127;SDS011;60000;51.030;7.024;2023-11-21T06:37:03;8.70;;;3.08;;
72127;SDS011;60000;51.030;7.024;2023-11-21T06:39:28;9.03;;;3.13;;
72127;SDS011;60000;51.030;7.024;2023-11-21T06:41:53;7.97;;;3.13;;
72127;SDS011;60000;51.030;7.024;2023-11-21T06:44:19;8.23;;;2.83;;
72127;SDS011;60000;51.030;7.024;2023-11-21T06:46:44;9.15;;;3.20;;
72127;SDS011;60000;51.030;7.024;2023-11-21T06:49:10;7.47;;;2.80;;
72127;SDS011;60000;51.030;7.024;2023-11-21T06:51:36;7.77;;;3.33;;
72127;SDS011;60000;51.030;7.024;2023-11-21T06:54:01;8.18;;;3.47;;
72127;SDS011;60000;51.030;7.024;2023-11-21T06:56:26;10.23;;;3.10;;
72127;SDS011;60000;51.030;7.024;2023-11-21T06:58:52;6.73;;;2.67;;
72127;SDS011;60000;51.030;7.024;2023-11-21T07:01:19;7.78;;;3.00;;
72127;SDS011;60000;51.030;7.024;2023-11-21T07:03:44;11.37;;;5.30;;
72127;SDS011;60000;51.030;7.024;2023-11-21T07:06:10;10.85;;;5.13;;
72127;SDS011;60000;51.030;7.024;2023-11-21T07:08:36;9.03;;;3.70;;
72127;SDS011;60000;51.030;7.024;2023-11-21T07:11:02;9.52;;;4.45;;
72127;SDS011;60000;51.030;7.024;2023-11-21T07:13:28;11.02;;;4.30;;
72127;SDS011;60000;51.030;7.024;2023-11-21T07:15:53;8.80;;;3.90;;
72127;SDS011;60000;51.030;7.024;2023-11-21T07:18:19;10.30;;;4.55;;
72127;SDS011;60000;51.030;7.024;2023-11-21T07:20:44;10.85;;;4.50;;
72127;SDS011;60000;51.030;7.024;2023-11-21T07:23:10;9.53;;;4.13;;
72127;SDS011;60000;51.030;7.024;2023-11-21T07:25:35;10.70;;;4.30;;
72127;SDS011;60000;51.030;7.024;2023-11-21T07:28:01;8.60;;;3.93;;
72127;SDS011;60000;51.030;7.024;2023-11-21T07:30:26;9.10;;;3.83;;
72127;SDS011;60000;51.030;7.024;2023-11-21T07:32:52;10.43;;;4.30;;
72127;SDS011;60000;51.030;7.024;2023-11-21T07:35:17;11.60;;;4.87;;
72127;SDS011;60000;51.030;7.024;2023-11-21T07:37:43;18.13;;;8.27;;
72127;SDS011;60000;51.030;7.024;2023-11-21T07:40:08;18.30;;;7.20;;
72127;SDS011;60000;51.030;7.024;2023-11-21T07:42:34;15.80;;;6.83;;
72127;SDS011;60000;51.030;7.024;2023-11-21T07:44:59;15.05;;;6.60;;
72127;SDS011;60000;51.030;7.024;2023-11-21T07:47:25;15.93;;;7.22;;
72127;SDS011;60000;51.030;7.024;2023-11-21T07:49:52;24.27;;;11.13;;
72127;SDS011;60000;51.030;7.024;2023-11-21T07:52:18;17.80;;;8.47;;
72127;SDS011;60000;51.030;7.024;2023-11-21T07:54:46;18.83;;;8.40;;
72127;SDS011;60000;51.030;7.024;2023-11-21T07:57:11;24.47;;;9.83;;
72127;SDS011;60000;51.030;7.024;2023-11-21T07:59:38;20.20;;;9.25;;
72127;SDS011;60000;51.030;7.024;2023-11-21T08:02:04;21.88;;;9.05;;
72127;SDS011;60000;51.030;7.024;2023-11-21T08:04:29;18.10;;;7.57;;
72127;SDS011;60000;51.030;7.024;2023-11-21T08:06:54;17.83;;;7.37;;
72127;SDS011;60000;51.030;7.024;2023-11-21T08:09:20;16.17;;;7.00;;
72127;SDS011;60000;51.030;7.024;2023-11-21T08:11:48;16.58;;;6.50;;
72127;SDS011;60000;51.030;7.024;2023-11-21T08:14:14;16.07;;;6.73;;
72127;SDS011;60000;51.030;7.024;2023-11-21T08:16:40;14.30;;;5.95;;
72127;SDS011;60000;51.030;7.024;2023-11-21T08:19:05;19.27;;;8.13;;
72127;SDS011;60000;51.030;7.024;2023-11-21T08:21:31;19.52;;;9.10;;
72127;SDS011;60000;51.030;7.024;2023-11-21T08:23:56;15.53;;;6.70;;
72127;SDS011;60000;51.030;7.024;2023-11-21T08:26:22;18.40;;;7.03;;
72127;SDS011;60000;51.030;7.024;2023-11-21T08:28:47;19.08;;;8.18;;
72127;SDS011;60000;51.030;7.024;2023-11-21T08:31:13;15.27;;;7.50;;
72127;SDS011;60000;51.030;7.024;2023-11-21T08:33:38;22.57;;;9.47;;
72127;SDS011;60000;51.030;7.024;2023-11-21T08:36:07;25.73;;;11.40;;
72127;SDS011;60000;51.030;7.024;2023-11-21T08:38:33;20.33;;;8.75;;
72127;SDS011;60000;51.030;7.024;2023-11-21T08:41:02;22.23;;;8.95;;
72127;SDS011;60000;51.030;7.024;2023-11-21T08:43:29;18.33;;;7.50;;
72127;SDS011;60000;51.030;7.024;2023-11-21T08:45:55;14.97;;;7.20;;
72127;SDS011;60000;51.030;7.024;2023-11-21T08:48:21;16.77;;;6.95;;
72127;SDS011;60000;51.030;7.024;2023-11-21T08:50:46;18.00;;;7.20;;
72127;SDS011;60000;51.030;7.024;2023-11-21T08:53:11;22.60;;;9.90;;
72127;SDS011;60000;51.030;7.024;2023-11-21T08:55:36;21.40;;;8.67;;
72127;SDS011;60000;51.030;7.024;2023-11-21T08:58:02;24.23;;;9.67;;
72127;SDS011;60000;51.030;7.024;2023-11-21T09:00:30;27.27;;;11.48;;
72127;SDS011;60000;51.030;7.024;2023-11-21T09:02:55;23.77;;;9.40;;
72127;SDS011;60000;51.030;7.024;2023-11-21T09:05:20;22.53;;;10.27;;
72127;SDS011;60000;51.030;7.024;2023-11-21T09:07:46;31.17;;;12.50;;
72127;SDS011;60000;51.030;7.024;2023-11-21T09:10:13;27.90;;;9.90;;
72127;SDS011;60000;51.030;7.024;2023-11-21T09:12:39;23.45;;;9.57;;
72127;SDS011;60000;51.030;7.024;2023-11-21T09:15:05;22.47;;;9.70;;
72127;SDS011;60000;51.030;7.024;2023-11-21T09:17:32;27.17;;;10.95;;
72127;SDS011;60000;51.030;7.024;2023-11-21T09:19:59;21.50;;;9.73;;
72127;SDS011;60000;51.030;7.024;2023-11-21T09:22:24;21.13;;;8.90;;
72127;SDS011;60000;51.030;7.024;2023-11-21T09:24:50;20.40;;;8.48;;
72127;SDS011;60000;51.030;7.024;2023-11-21T09:27:16;21.88;;;8.88;;
72127;SDS011;60000;51.030;7.024;2023-11-21T09:29:42;24.08;;;9.85;;
72127;SDS011;60000;51.030;7.024;2023-11-21T09:32:07;23.50;;;9.47;;
72127;SDS011;60000;51.030;7.024;2023-11-21T09:34:33;23.63;;;10.18;;
72127;SDS011;60000;51.030;7.024;2023-11-21T09:37:03;30.03;;;11.33;;
72127;SDS011;60000;51.030;7.024;2023-11-21T09:39:30;25.15;;;10.05;;
72127;SDS011;60000;51.030;7.024;2023-11-21T09:42:02;30.88;;;11.98;;
72127;SDS011;60000;51.030;7.024;2023-11-21T09:44:40;30.25;;;11.43;;
72127;SDS011;60000;51.030;7.024;2023-11-21T09:47:10;29.27;;;11.88;;
72127;SDS011;60000;51.030;7.024;2023-11-21T09:49:41;30.20;;;12.60;;
72127;SDS011;60000;51.030;7.024;2023-11-21T09:52:12;31.50;;;10.77;;
72127;SDS011;60000;51.030;7.024;2023-11-21T09:54:45;29.30;;;11.80;;
72127;SDS011;60000;51.030;7.024;2023-11-21T09:57:12;26.52;;;11.23;;
72127;SDS011;60000;51.030;7.024;2023-11-21T09:59:40;23.27;;;9.85;;
72127;SDS011;60000;51.030;7.024;2023-11-21T10:02:06;24.13;;;11.13;;
72127;SDS011;60000;51.030;7.024;2023-11-21T10:04:32;27.73;;;12.05;;
72127;SDS011;60000;51.030;7.024;2023-11-21T10:06:57;25.33;;;11.80;;
72127;SDS011;60000;51.030;7.024;2023-11-21T10:09:24;23.38;;;10.10;;
72127;SDS011;60000;51.030;7.024;2023-11-21T10:11:52;20.63;;;8.97;;
72127;SDS011;60000;51.030;7.024;2023-11-21T10:14:18;24.23;;;10.23;;
72127;SDS011;60000;51.030;7.024;2023-11-21T10:16:44;26.67;;;11.18;;
72127;SDS011;60000;51.030;7.024;2023-11-21T10:19:12;24.83;;;10.53;;
72127;SDS011;60000;51.030;7.024;2023-11-21T10:21:41;27.58;;;10.90;;
72127;SDS011;60000;51.030;7.024;2023-11-21T10:24:06;27.00;;;12.23;;
72127;SDS011;60000;51.030;7.024;2023-11-21T10:26:32;30.40;;;12.03;;
72127;SDS011;60000;51.030;7.024;2023-11-21T10:28:59;25.05;;;10.40;;
72127;SDS011;60000;51.030;7.024;2023-11-21T10:31:32;24.25;;;10.90;;
72127;SDS011;60000;51.030;7.024;2023-11-21T10:34:20;33.60;;;13.83;;
72127;SDS011;60000;51.030;7.024;2023-11-21T10:36:47;30.48;;;11.90;;
72127;SDS011;60000;51.030;7.024;2023-11-21T10:39:19;32.33;;;12.40;;
72127;SDS011;60000;51.030;7.024;2023-11-21T10:41:48;26.23;;;11.23;;
72127;SDS011;60000;51.030;7.024;2023-11-21T10:44:14;29.17;;;12.48;;
72127;SDS011;60000;51.030;7.024;2023-11-21T10:46:52;28.42;;;11.52;;
72127;SDS011;60000;51.030;7.024;2023-11-21T10:49:21;29.73;;;12.55;;
72127;SDS011;60000;51.030;7.024;2023-11-21T10:51:49;32.00;;;12.55;;
72127;SDS011;60000;51.030;7.024;2023-11-21T10:54:22;30.90;;;12.77;;
72127;SDS011;60000;51.030;7.024;2023-11-21T10:56:50;26.33;;;11.88;;
72127;SDS011;60000;51.030;7.024;2023-11-21T10:59:24;28.65;;;11.60;;
72127;SDS011;60000;51.030;7.024;2023-11-21T11:01:53;29.08;;;11.48;;
72127;SDS011;60000;51.030;7.024;2023-11-21T11:04:20;22.17;;;10.55;;
72127;SDS011;60000;51.030;7.024;2023-11-21T11:07:00;22.75;;;10.80;;
72127;SDS011;60000;51.030;7.024;2023-11-21T11:09:28;28.20;;;12.18;;
72127;SDS011;60000;51.030;7.024;2023-11-21T11:11:55;34.13;;;13.82;;
72127;SDS011;60000;51.030;7.024;2023-11-21T11:14:21;33.25;;;12.77;;
72127;SDS011;60000;51.030;7.024;2023-11-21T11:16:50;26.05;;;10.40;;
72127;SDS011;60000;51.030;7.024;2023-11-21T11:19:18;34.53;;;13.27;;
72127;SDS011;60000;51.030;7.024;2023-11-21T11:27:52;28.45;;;12.13;;
72127;SDS011;60000;51.030;7.024;2023-11-21T11:30:15;31.02;;;11.88;;
72127;SDS011;60000;51.030;7.024;2023-11-21T11:33:12;37.13;;;13.37;;
72127;SDS011;60000;51.030;7.024;2023-11-21T11:38:27;30.27;;;12.15;;
72127;SDS011;60000;51.030;7.024;2023-11-21T11:40:57;34.80;;;13.60;;
72127;SDS011;60000;51.030;7.024;2023-11-21T11:43:26;30.02;;;12.65;;
72127;SDS011;60000;51.030;7.024;2023-11-21T11:45:52;37.23;;;15.13;;
72127;SDS011;60000;51.030;7.024;2023-11-21T11:48:21;34.53;;;13.10;;
72127;SDS011;60000;51.030;7.024;2023-11-21T11:51:03;33.58;;;12.95;;
72127;SDS011;60000;51.030;7.024;2023-11-21T11:53:46;33.90;;;14.10;;
72127;SDS011;60000;51.030;7.024;2023-11-21T11:58:53;34.30;;;12.88;;
72127;SDS011;60000;51.030;7.024;2023-11-21T12:01:22;30.40;;;12.95;;
72127;SDS011;60000;51.030;7.024;2023-11-21T12:06:40;33.15;;;12.73;;
72127;SDS011;60000;51.030;7.024;2023-11-21T12:09:07;31.60;;;12.97;;
72127;SDS011;60000;51.030;7.024;2023-11-21T12:11:39;29.50;;;11.15;;
72127;SDS011;60000;51.030;7.024;2023-11-21T12:14:06;30.70;;;11.80;;
72127;SDS011;60000;51.030;7.024;2023-11-21T12:16:32;29.37;;;11.83;;
72127;SDS011;60000;51.030;7.024;2023-11-21T12:18:58;24.80;;;10.20;;
72127;SDS011;60000;51.030;7.024;2023-11-21T12:21:23;25.77;;;10.93;;
72127;SDS011;60000;51.030;7.024;2023-11-21T12:23:48;25.03;;;10.33;;
72127;SDS011;60000;51.030;7.024;2023-11-21T12:26:14;34.67;;;13.33;;
72127;SDS011;60000;51.030;7.024;2023-11-21T12:28:39;31.13;;;12.63;;
72127;SDS011;60000;51.030;7.024;2023-11-21T12:31:04;30.87;;;12.37;;
72127;SDS011;60000;51.030;7.024;2023-11-21T12:33:31;32.60;;;11.88;;
72127;SDS011;60000;51.030;7.024;2023-11-21T12:36:00;30.42;;;11.73;;
72127;SDS011;60000;51.030;7.024;2023-11-21T12:38:25;28.80;;;12.40;;
72127;SDS011;60000;51.030;7.024;2023-11-21T12:40:58;28.48;;;11.93;;
72127;SDS011;60000;51.030;7.024;2023-11-21T12:43:24;27.42;;;10.95;;
72127;SDS011;60000;51.030;7.024;2023-11-21T12:45:49;30.37;;;11.10;;
72127;SDS011;60000;51.030;7.024;2023-11-21T12:48:14;26.20;;;10.97;;
72127;SDS011;60000;51.030;7.024;2023-11-21T12:50:42;26.65;;;10.88;;
72127;SDS011;60000;51.030;7.024;2023-11-21T12:53:08;26.60;;;11.20;;
72127;SDS011;60000;51.030;7.024;2023-11-21T12:55:37;26.95;;;11.40;;
72127;SDS011;60000;51.030;7.024;2023-11-21T12:58:07;29.33;;;12.40;;
72127;SDS011;60000;51.030;7.024;2023-11-21T13:00:35;28.40;;;11.90;;
72127;SDS011;60000;51.030;7.024;2023-11-21T13:03:03;29.48;;;11.05;;
72127;SDS011;60000;51.030;7.024;2023-11-21T13:05:33;35.20;;;12.68;;
72127;SDS011;60000;51.030;7.024;2023-11-21T13:08:01;31.98;;;13.20;;
72127;SDS011;60000;51.030;7.024;2023-11-21T13:10:29;38.17;;;13.23;;
72127;SDS011;60000;51.030;7.024;2023-11-21T13:12:59;32.65;;;12.68;;
72127;SDS011;60000;51.030;7.024;2023-11-21T13:15:29;27.65;;;11.95;;
72127;SDS011;60000;51.030;7.024;2023-11-21T13:17:56;25.17;;;10.95;;
72127;SDS011;60000;51.030;7.024;2023-11-21T13:20:22;25.13;;;10.75;;
72127;SDS011;60000;51.030;7.024;2023-11-21T13:22:49;27.02;;;10.38;;
72127;SDS011;60000;51.030;7.024;2023-11-21T13:25:19;26.92;;;11.32;;
72127;SDS011;60000;51.030;7.024;2023-11-21T13:27:46;28.92;;;10.45;;
72127;SDS011;60000;51.030;7.024;2023-11-21T13:30:12;27.23;;;10.52;;
72127;SDS011;60000;51.030;7.024;2023-11-21T13:32:42;30.23;;;10.68;;
72127;SDS011;60000;51.030;7.024;2023-11-21T13:35:08;31.80;;;12.20;;
72127;SDS011;60000;51.030;7.024;2023-11-21T13:37:40;31.40;;;11.63;;
72127;SDS011;60000;51.030;7.024;2023-11-21T13:40:06;28.97;;;11.77;;
72127;SDS011;60000;51.030;7.024;2023-11-21T13:42:39;24.60;;;10.52;;
72127;SDS011;60000;51.030;7.024;2023-11-21T13:45:06;31.33;;;11.70;;
72127;SDS011;60000;51.030;7.024;2023-11-21T13:47:31;27.23;;;11.07;;
72127;SDS011;60000;51.030;7.024;2023-11-21T13:49:59;26.33;;;11.18;;
72127;SDS011;60000;51.030;7.024;2023-11-21T13:52:25;27.63;;;11.05;;
72127;SDS011;60000;51.030;7.024;2023-11-21T13:54:52;28.77;;;11.23;;
72127;SDS011;60000;51.030;7.024;2023-11-21T13:57:18;29.80;;;11.37;;
72127;SDS011;60000;51.030;7.024;2023-11-21T13:59:45;31.58;;;11.68;;
72127;SDS011;60000;51.030;7.024;2023-11-21T14:02:10;32.30;;;12.27;;
72127;SDS011;60000;51.030;7.024;2023-11-21T14:04:43;30.77;;;12.25;;
72127;SDS011;60000;51.030;7.024;2023-11-21T14:07:14;31.60;;;11.73;;
72127;SDS011;60000;51.030;7.024;2023-11-21T14:09:51;28.23;;;11.07;;
72127;SDS011;60000;51.030;7.024;2023-11-21T14:12:17;28.88;;;11.35;;
72127;SDS011;60000;51.030;7.024;2023-11-21T14:14:43;29.57;;;12.13;;
72127;SDS011;60000;51.030;7.024;2023-11-21T14:17:09;28.45;;;11.13;;
72127;SDS011;60000;51.030;7.024;2023-11-21T14:19:35;28.63;;;10.88;;
72127;SDS011;60000;51.030;7.024;2023-11-21T14:22:05;29.63;;;11.13;;
72127;SDS011;60000;51.030;7.024;2023-11-21T14:24:30;26.53;;;11.17;;
72127;SDS011;60000;51.030;7.024;2023-11-21T14:26:57;25.58;;;9.80;;
72127;SDS011;60000;51.030;7.024;2023-11-21T14:29:22;23.70;;;9.53;;
72127;SDS011;60000;51.030;7.024;2023-11-21T14:31:48;24.95;;;9.18;;
72127;SDS011;60000;51.030;7.024;2023-11-21T14:34:16;34.22;;;11.32;;
72127;SDS011;60000;51.030;7.024;2023-11-21T14:36:42;24.08;;;10.43;;
72127;SDS011;60000;51.030;7.024;2023-11-21T14:39:08;25.45;;;9.85;;
72127;SDS011;60000;51.030;7.024;2023-11-21T14:41:45;24.98;;;10.07;;
72127;SDS011;60000;51.030;7.024;2023-11-21T14:44:11;32.40;;;11.60;;
72127;SDS011;60000;51.030;7.024;2023-11-21T14:46:37;27.35;;;11.23;;
72127;SDS011;60000;51.030;7.024;2023-11-21T14:49:04;29.50;;;12.90;;